Time;durP1;ratioP1;P1;durP2;ratioP2;P2;SDS_P1;SDS_P2;PMS_P1;PMS_P2;Temp;Humidity;BMP_temperature;BMP_pressure;BME280_temperature;BME280_humidity;BME280_pressure;Samples;Min_cycle;Max_cycle;Signal;HPM_P1;HPM_P2
2021/08/13 00:00:32;;;;;;;11.23;10.10;;;17.70;99.90;;;;;;4969234;28;20477;-49
2021/08/13 00:02:58;;;;;;;11.60;10.50;;;17.70;99.90;;;;;;4968911;28;20652;-51
2021/08/13 00:05:24;;;;;;;11.00;9.80;;;17.70;99.90;;;;;;4969021;28;20041;-56
2021/08/13 00:07:49;;;;;;;10.82;9.70;;;17.70;99.90;;;;;;4968799;28;20052;-50
2021/08/13 00:10:15;;;;;;;13.85;10.85;;;17.60;99.90;;;;;;4969161;28;20409;-47
2021/08/13 00:12:40;;;;;;;10.63;9.63;;;17.60;99.90;;;;;;4969139;28;20015;-50
2021/08/13 00:15:06;;;;;;;11.98;10.57;;;17.60;99.90;;;;;;4967491;28;20019;-50
2021/08/13 00:17:32;;;;;;;11.15;9.98;;;17.60;99.90;;;;;;4968847;28;20046;-54
2021/08/13 00:19:58;;;;;;;12.18;10.98;;;17.60;99.90;;;;;;4969208;28;20034;-50
2021/08/13 00:22:23;;;;;;;10.65;9.55;;;17.60;99.90;;;;;;4968984;28;20020;-48
2021/08/13 00:24:51;;;;;;;11.10;9.88;;;17.60;99.90;;;;;;4968467;28;20500;-48
2021/08/13 00:27:16;;;;;;;10.88;9.50;;;17.60;99.90;;;;;;4969153;28;20015;-48
2021/08/13 00:29:42;;;;;;;10.90;9.80;;;17.60;99.90;;;;;;4968788;28;20033;-47
2021/08/13 00:32:08;;;;;;;10.55;9.50;;;17.60;99.90;;;;;;4967455;28;20049;-51
2021/08/13 00:34:33;;;;;;;13.13;11.45;;;17.60;99.90;;;;;;4967818;28;20031;-47
2021/08/13 00:36:59;;;;;;;11.07;10.05;;;17.60;99.90;;;;;;4968673;28;20027;-51
2021/08/13 00:39:24;;;;;;;10.90;9.80;;;17.60;99.90;;;;;;4970229;28;20027;-47
2021/08/13 00:41:50;;;;;;;11.63;10.48;;;17.60;99.90;;;;;;4972581;28;20077;-46
2021/08/13 00:44:16;;;;;;;11.30;10.20;;;17.60;99.90;;;;;;4972596;28;20062;-47
2021/08/13 00:46:41;;;;;;;11.02;9.93;;;17.60;99.90;;;;;;4971881;28;20031;-52
2021/08/13 00:49:08;;;;;;;10.82;9.82;;;17.60;99.90;;;;;;4972422;28;20049;-49
2021/08/13 00:51:34;;;;;;;11.13;9.95;;;17.60;99.90;;;;;;4972457;28;20026;-53
2021/08/13 00:54:00;;;;;;;11.10;10.00;;;17.60;99.90;;;;;;4972078;28;20449;-53
2021/08/13 00:56:26;;;;;;;9.93;9.02;;;17.60;99.90;;;;;;4971882;28;20054;-50
2021/08/13 00:58:52;;;;;;;13.07;10.57;;;17.60;99.90;;;;;;4970006;28;20627;-54
2021/08/13 01:01:19;;;;;;;10.75;9.65;;;17.60;99.90;;;;;;4970178;28;20031;-54
2021/08/13 01:03:45;;;;;;;10.80;9.70;;;17.60;99.90;;;;;;4969969;28;20033;-51
2021/08/13 01:06:16;;;;;;;11.30;10.15;;;17.60;99.90;;;;;;4970444;28;20383;-47
2021/08/13 01:08:42;;;;;;;12.43;9.98;;;17.60;99.90;;;;;;4971860;28;20023;-47
2021/08/13 01:11:22;;;;;;;10.25;9.25;;;17.60;99.90;;;;;;4971711;28;20043;-48
2021/08/13 01:14:00;;;;;;;10.80;9.82;;;17.60;99.90;;;;;;4971909;28;20018;-49
2021/08/13 01:16:27;;;;;;;10.57;9.57;;;17.60;99.90;;;;;;4964609;28;20062;-49
2021/08/13 01:19:12;;;;;;;10.43;9.00;;;17.60;99.90;;;;;;4970412;28;20537;-51
2021/08/13 01:21:43;;;;;;;10.02;9.02;;;17.60;99.90;;;;;;4975490;28;20758;-46
2021/08/13 01:24:16;;;;;;;10.57;9.48;;;17.60;99.90;;;;;;4971438;28;20424;-52
2021/08/13 01:27:02;;;;;;;11.55;10.38;;;17.60;99.90;;;;;;4971178;28;20027;-50
2021/08/13 01:29:52;;;;;;;10.32;9.43;;;17.60;99.90;;;;;;4970388;28;20058;-46
2021/08/13 01:32:43;;;;;;;10.02;9.02;;;17.60;99.90;;;;;;4967660;28;20396;-47
2021/08/13 01:35:16;;;;;;;10.63;9.60;;;17.60;99.90;;;;;;4970964;28;20023;-45
2021/08/13 01:37:55;;;;;;;11.07;9.98;;;17.60;99.90;;;;;;4969964;28;20105;-51
2021/08/13 01:40:22;;;;;;;10.77;9.68;;;17.60;99.90;;;;;;4962275;28;20074;-52
2021/08/13 01:42:50;;;;;;;12.07;8.98;;;17.60;99.90;;;;;;4971162;28;20026;-50
2021/08/13 01:45:20;;;;;;;11.30;10.20;;;17.60;99.90;;;;;;4970915;28;20019;-49
2021/08/13 01:47:48;;;;;;;10.35;9.35;;;17.60;99.90;;;;;;4969426;28;20030;-47
2021/08/13 01:50:14;;;;;;;10.98;9.98;;;17.60;99.90;;;;;;4969054;28;20465;-46
2021/08/13 01:52:41;;;;;;;9.95;9.05;;;17.60;99.90;;;;;;4969853;28;20044;-47
2021/08/13 01:55:07;;;;;;;9.88;8.98;;;17.60;99.90;;;;;;4971142;28;20030;-51
2021/08/13 01:57:33;;;;;;;10.20;9.25;;;17.60;99.90;;;;;;4971106;28;20074;-49
2021/08/13 01:59:59;;;;;;;9.85;8.85;;;17.60;99.90;;;;;;4970700;28;20023;-46
2021/08/13 02:02:25;;;;;;;11.13;10.13;;;17.60;99.90;;;;;;4971136;28;20049;-47
2021/08/13 02:04:52;;;;;;;9.73;8.80;;;17.60;99.90;;;;;;4970676;28;20031;-49
2021/08/13 02:07:18;;;;;;;10.65;9.75;;;17.60;99.90;;;;;;4959052;28;20026;-52
2021/08/13 02:09:44;;;;;;;10.95;9.85;;;17.60;99.90;;;;;;4973112;28;20134;-49
2021/08/13 02:12:10;;;;;;;12.00;10.90;;;17.60;99.90;;;;;;4970741;28;20667;-53
2021/08/13 02:14:38;;;;;;;11.65;9.82;;;17.60;99.90;;;;;;4970479;28;20081;-49
2021/08/13 02:17:08;;;;;;;10.52;9.55;;;17.60;99.90;;;;;;4970624;28;20075;-46
2021/08/13 02:19:46;;;;;;;12.43;11.13;;;17.60;99.90;;;;;;4970924;28;20477;-50
2021/08/13 02:22:12;;;;;;;12.10;11.00;;;17.60;99.90;;;;;;4970615;28;20118;-48
2021/08/13 02:24:38;;;;;;;12.02;10.80;;;17.60;99.90;;;;;;4969607;28;20022;-47
2021/08/13 02:27:04;;;;;;;11.38;10.32;;;17.60;99.90;;;;;;4970252;28;20019;-47
2021/08/13 02:29:30;;;;;;;13.90;11.00;;;17.60;99.90;;;;;;4970471;28;20489;-52
2021/08/13 02:31:55;;;;;;;10.93;9.93;;;17.60;99.90;;;;;;4966552;28;20034;-51
2021/08/13 02:34:21;;;;;;;11.45;10.38;;;17.60;99.90;;;;;;4969297;28;20023;-49
2021/08/13 02:36:53;;;;;;;12.63;10.90;;;17.60;99.90;;;;;;4969760;28;20026;-52
2021/08/13 02:39:26;;;;;;;12.15;10.75;;;17.60;99.90;;;;;;4970278;28;20161;-46
2021/08/13 02:41:55;;;;;;;11.18;10.07;;;17.60;99.90;;;;;;4970367;28;20019;-46
2021/08/13 02:44:22;;;;;;;12.85;10.80;;;17.60;99.90;;;;;;4968592;28;20117;-54
2021/08/13 02:46:54;;;;;;;12.75;11.45;;;17.60;99.90;;;;;;4968774;28;20019;-48
2021/08/13 02:49:22;;;;;;;10.45;9.45;;;17.50;99.90;;;;;;4968260;28;20049;-49
2021/08/13 02:51:51;;;;;;;11.68;10.57;;;17.50;99.90;;;;;;4969209;28;20054;-50
2021/08/13 02:54:24;;;;;;;11.65;10.55;;;17.50;99.90;;;;;;4967138;28;20397;-53
2021/08/13 02:56:53;;;;;;;13.82;11.18;;;17.50;99.90;;;;;;4968753;28;20026;-47
2021/08/13 02:59:21;;;;;;;11.88;10.60;;;17.50;99.90;;;;;;4966593;28;20029;-50
2021/08/13 03:01:48;;;;;;;11.32;10.23;;;17.50;99.90;;;;;;4969230;28;20023;-51
2021/08/13 03:04:14;;;;;;;13.13;10.25;;;17.50;99.90;;;;;;4968487;28;20064;-50
2021/08/13 03:06:43;;;;;;;11.55;10.45;;;17.50;99.90;;;;;;4967957;28;20062;-52
2021/08/13 03:09:09;;;;;;;11.68;10.57;;;17.50;99.90;;;;;;4968606;28;20026;-47
2021/08/13 03:11:38;;;;;;;11.65;10.30;;;17.50;99.90;;;;;;4968428;28;20505;-49
2021/08/13 03:14:04;;;;;;;12.55;10.48;;;17.50;99.90;;;;;;4969557;28;20026;-49
2021/08/13 03:16:33;;;;;;;13.38;12.00;;;17.40;99.90;;;;;;4969520;28;20034;-52
2021/08/13 03:19:00;;;;;;;11.45;10.25;;;17.40;99.90;;;;;;4969908;28;20560;-47
2021/08/13 03:21:26;;;;;;;12.43;11.13;;;17.40;99.90;;;;;;4969451;28;20031;-51
2021/08/13 03:23:53;;;;;;;11.18;10.07;;;17.40;99.90;;;;;;4969801;28;20416;-47
2021/08/13 03:26:19;;;;;;;11.77;10.65;;;17.30;99.90;;;;;;4964396;28;20030;-49
2021/08/13 03:28:46;;;;;;;13.65;12.30;;;17.30;99.90;;;;;;4969180;28;20540;-48
2021/08/13 03:31:30;;;;;;;11.70;10.50;;;17.30;99.90;;;;;;4969671;28;20081;-49
2021/08/13 03:33:55;;;;;;;12.27;11.07;;;17.30;99.90;;;;;;4968223;28;20023;-47
2021/08/13 03:36:21;;;;;;;11.73;10.07;;;17.20;99.90;;;;;;4968245;28;20034;-49
2021/08/13 03:38:47;;;;;;;12.85;11.65;;;17.20;99.90;;;;;;4968998;28;20023;-48
2021/08/13 03:41:16;;;;;;;12.35;11.05;;;17.20;99.90;;;;;;4969228;28;20108;-53
2021/08/13 03:43:41;;;;;;;13.02;11.90;;;17.10;99.90;;;;;;4964523;28;20033;-49
2021/08/13 03:46:07;;;;;;;11.18;10.07;;;17.10;99.90;;;;;;4967779;28;20026;-51
2021/08/13 03:48:32;;;;;;;12.02;10.70;;;17.10;99.90;;;;;;4969228;28;20081;-55
2021/08/13 03:50:58;;;;;;;13.73;12.35;;;17.00;99.90;;;;;;4969045;28;20034;-46
2021/08/13 03:53:23;;;;;;;12.40;11.27;;;17.00;99.90;;;;;;4968887;28;20068;-49
2021/08/13 03:55:49;;;;;;;12.20;10.90;;;17.00;99.90;;;;;;4969431;28;20118;-50
2021/08/13 03:58:15;;;;;;;13.05;11.77;;;17.00;99.90;;;;;;4969522;28;20026;-54
2021/08/13 04:00:40;;;;;;;12.52;11.32;;;16.90;99.90;;;;;;4968991;28;20019;-49
2021/08/13 04:03:06;;;;;;;12.70;11.40;;;16.90;99.90;;;;;;4969547;28;20536;-48
2021/08/13 04:05:31;;;;;;;13.32;11.90;;;16.90;99.90;;;;;;4968654;28;20125;-52
2021/08/13 04:07:57;;;;;;;13.38;11.98;;;16.90;99.90;;;;;;4991633;23;20493;-54
2021/08/13 04:10:23;;;;;;;13.40;12.13;;;16.80;99.90;;;;;;4968591;28;20557;-54
2021/08/13 04:12:48;;;;;;;15.20;13.80;;;16.80;99.90;;;;;;4969457;28;20058;-51
2021/08/13 04:15:14;;;;;;;13.23;11.90;;;16.80;99.90;;;;;;4972086;28;20026;-54
2021/08/13 04:17:39;;;;;;;15.57;13.98;;;16.70;99.90;;;;;;4974740;28;20498;-51
2021/08/13 04:20:05;;;;;;;14.63;13.13;;;16.70;99.90;;;;;;4990714;28;20516;-54
2021/08/13 04:22:31;;;;;;;14.23;12.57;;;16.70;99.90;;;;;;4987126;28;20018;-52
2021/08/13 04:24:56;;;;;;;15.05;13.55;;;16.70;99.90;;;;;;4989979;28;20405;-52
2021/08/13 04:27:22;;;;;;;13.82;12.43;;;16.60;99.90;;;;;;4987400;28;20480;-54
2021/08/13 04:29:48;;;;;;;13.65;12.25;;;16.60;99.90;;;;;;4991435;28;20469;-53
2021/08/13 04:32:13;;;;;;;12.45;11.23;;;16.60;99.90;;;;;;4989427;28;20029;-53
2021/08/13 04:34:39;;;;;;;13.82;12.52;;;16.60;99.90;;;;;;4989046;28;20023;-53
2021/08/13 04:37:04;;;;;;;13.95;12.60;;;16.60;99.90;;;;;;4990583;28;20100;-53
2021/08/13 04:39:30;;;;;;;15.80;12.88;;;16.60;99.90;;;;;;4986567;28;20054;-52
2021/08/13 04:41:55;;;;;;;15.05;13.45;;;16.60;99.90;;;;;;4991924;28;20150;-52
2021/08/13 04:44:21;;;;;;;15.27;13.75;;;16.70;99.90;;;;;;4987743;28;20085;-56
2021/08/13 04:46:46;;;;;;;14.73;13.25;;;16.70;99.90;;;;;;4989486;28;20030;-52
2021/08/13 04:49:15;;;;;;;14.32;12.93;;;16.70;99.90;;;;;;4982660;28;20089;-53
2021/08/13 04:51:40;;;;;;;15.55;13.95;;;16.70;99.90;;;;;;4987421;28;20042;-53
2021/08/13 04:54:06;;;;;;;13.60;12.30;;;16.60;99.90;;;;;;4989675;28;20045;-53
2021/08/13 04:56:31;;;;;;;15.75;14.25;;;16.60;99.90;;;;;;4988270;28;20031;-52
2021/08/13 04:58:57;;;;;;;16.35;14.73;;;16.60;99.90;;;;;;4989648;28;20057;-53
2021/08/13 05:01:22;;;;;;;16.90;15.30;;;16.70;99.90;;;;;;4987861;28;20018;-53
2021/08/13 05:03:48;;;;;;;15.85;14.30;;;16.60;99.90;;;;;;4986832;28;20022;-57
2021/08/13 05:06:18;;;;;;;23.83;17.58;;;16.70;99.90;;;;;;4988439;28;20019;-52
2021/08/13 05:08:44;;;;;;;18.42;15.98;;;16.70;99.90;;;;;;4987189;28;20033;-52
2021/08/13 05:11:09;;;;;;;18.42;16.42;;;16.70;99.90;;;;;;4991709;28;20019;-53
2021/08/13 05:13:35;;;;;;;20.63;16.10;;;16.80;99.90;;;;;;4988205;28;20091;-54
2021/08/13 05:16:00;;;;;;;22.02;16.27;;;16.80;99.90;;;;;;4990144;28;20116;-51
2021/08/13 05:18:26;;;;;;;20.08;15.15;;;16.80;99.90;;;;;;4987024;28;20606;-53
2021/08/13 05:20:51;;;;;;;16.88;14.95;;;16.90;99.90;;;;;;4989316;28;20031;-52
2021/08/13 05:23:17;;;;;;;18.70;16.45;;;16.90;99.90;;;;;;4979931;28;20026;-52
2021/08/13 05:25:43;;;;;;;19.55;17.45;;;16.90;99.90;;;;;;4984700;28;20018;-52
2021/08/13 05:28:08;;;;;;;18.45;16.08;;;16.90;99.90;;;;;;4988388;28;20031;-52
2021/08/13 05:30:34;;;;;;;19.17;17.25;;;17.00;99.90;;;;;;4983763;28;20032;-53
2021/08/13 05:33:00;;;;;;;19.55;16.60;;;17.10;99.90;;;;;;4989575;28;20097;-51
2021/08/13 05:35:26;;;;;;;21.70;18.52;;;17.10;99.90;;;;;;4982493;28;20477;-51
2021/08/13 05:37:51;;;;;;;19.52;16.75;;;17.10;99.90;;;;;;4988926;28;20030;-52
2021/08/13 05:40:17;;;;;;;18.70;16.65;;;17.20;99.90;;;;;;4987417;28;20018;-52
2021/08/13 05:42:42;;;;;;;18.80;16.80;;;17.20;99.90;;;;;;4988425;28;20031;-53
2021/08/13 05:45:08;;;;;;;22.00;18.30;;;17.30;99.90;;;;;;4985952;28;20542;-55
2021/08/13 05:47:38;;;;;;;22.23;18.15;;;17.40;99.90;;;;;;4988941;28;20118;-53
2021/08/13 05:50:05;;;;;;;20.38;18.17;;;17.40;99.90;;;;;;4985174;28;20022;-52
2021/08/13 05:52:30;;;;;;;20.00;18.00;;;17.50;99.90;;;;;;4988097;28;20452;-52
2021/08/13 05:54:56;;;;;;;22.05;18.77;;;17.60;99.90;;;;;;4990032;28;20109;-52
2021/08/13 05:57:21;;;;;;;22.80;19.23;;;17.70;99.90;;;;;;4986909;28;20022;-52
2021/08/13 05:59:47;;;;;;;21.90;19.15;;;17.80;99.90;;;;;;4989606;28;20493;-52
2021/08/13 06:02:17;;;;;;;22.45;20.05;;;17.90;99.90;;;;;;4986659;28;20109;-52
2021/08/13 06:04:43;;;;;;;24.23;19.95;;;18.00;99.90;;;;;;4988832;28;20030;-56
2021/08/13 06:07:09;;;;;;;19.80;17.70;;;18.10;99.90;;;;;;4985942;28;20073;-52
2021/08/13 06:09:34;;;;;;;21.23;18.85;;;18.10;99.90;;;;;;4986067;28;20034;-52
2021/08/13 06:12:00;;;;;;;20.95;18.67;;;18.30;99.90;;;;;;4990057;28;20023;-54
2021/08/13 06:14:26;;;;;;;21.42;17.38;;;18.40;99.90;;;;;;4987007;28;20031;-52
2021/08/13 06:16:51;;;;;;;18.10;16.20;;;18.40;99.90;;;;;;4989493;28;20109;-52
2021/08/13 06:19:17;;;;;;;18.42;15.07;;;18.50;99.90;;;;;;4982132;28;20027;-53
2021/08/13 06:21:42;;;;;;;16.92;15.13;;;18.60;99.90;;;;;;4988205;28;20026;-52
2021/08/13 06:24:08;;;;;;;15.18;13.57;;;18.70;99.90;;;;;;4985317;28;20545;-55
2021/08/13 06:26:33;;;;;;;19.95;13.98;;;18.80;99.90;;;;;;4987546;28;20400;-54
2021/08/13 06:28:59;;;;;;;13.70;12.05;;;18.90;99.90;;;;;;4984272;28;20034;-56
2021/08/13 06:31:25;;;;;;;14.40;12.90;;;19.00;99.90;;;;;;4986680;28;20030;-54
2021/08/13 06:33:51;;;;;;;13.20;11.80;;;19.10;99.90;;;;;;4987418;28;20030;-53
2021/08/13 06:36:16;;;;;;;13.00;11.80;;;19.20;99.90;;;;;;4982106;28;20030;-55
2021/08/13 06:38:42;;;;;;;12.07;10.88;;;19.40;99.90;;;;;;4988160;28;20022;-55
2021/08/13 06:41:08;;;;;;;12.10;10.73;;;19.50;99.90;;;;;;4984633;28;20028;-53
2021/08/13 06:43:33;;;;;;;11.63;10.25;;;19.60;99.90;;;;;;4989627;28;20034;-56
2021/08/13 06:45:59;;;;;;;13.68;9.20;;;19.70;99.90;;;;;;4984036;28;20030;-53
2021/08/13 06:48:24;;;;;;;10.23;8.68;;;19.90;99.90;;;;;;4988655;28;20030;-53
2021/08/13 06:50:50;;;;;;;13.32;9.02;;;20.00;99.90;;;;;;4984397;28;20022;-52
2021/08/13 06:53:16;;;;;;;11.40;8.10;;;20.10;99.90;;;;;;4986479;28;20464;-58
2021/08/13 06:55:41;;;;;;;9.23;8.43;;;20.20;99.90;;;;;;4988602;28;20015;-55
2021/08/13 06:58:07;;;;;;;8.43;7.55;;;20.30;99.90;;;;;;4984339;28;20037;-55
2021/08/13 07:00:32;;;;;;;9.65;7.75;;;20.40;99.90;;;;;;4989747;28;20050;-54
2021/08/13 07:02:58;;;;;;;9.93;7.93;;;20.50;99.90;;;;;;4984321;28;20033;-52
2021/08/13 07:05:23;;;;;;;8.25;7.45;;;20.70;99.90;;;;;;4986639;28;20109;-54
2021/08/13 07:07:49;;;;;;;12.10;7.80;;;20.80;99.90;;;;;;4983881;28;20044;-54
2021/08/13 07:10:15;;;;;;;11.23;8.27;;;20.90;99.90;;;;;;4985963;28;20117;-52
2021/08/13 07:12:41;;;;;;;8.05;7.25;;;21.00;99.90;;;;;;4989060;28;20033;-52
2021/08/13 07:15:08;;;;;;;7.40;6.32;;;21.10;99.90;;;;;;4976017;28;20746;-54
2021/08/13 07:17:35;;;;;;;7.65;6.95;;;21.20;99.90;;;;;;4979036;28;20018;-53
2021/08/13 07:20:02;;;;;;;8.23;7.43;;;21.40;99.90;;;;;;4982108;28;20034;-56
2021/08/13 07:22:28;;;;;;;7.50;6.70;;;21.60;99.90;;;;;;4986861;28;20109;-54
2021/08/13 07:24:54;;;;;;;11.90;8.00;;;21.80;99.90;;;;;;5001813;28;20125;-55
2021/08/13 07:27:20;;;;;;;9.25;8.25;;;22.00;99.90;;;;;;4984569;28;20370;-51
2021/08/13 07:29:45;;;;;;;7.80;7.00;;;22.10;99.90;;;;;;4987377;28;20030;-55
2021/08/13 07:32:11;;;;;;;8.65;7.75;;;22.10;99.90;;;;;;4982814;28;20342;-53
2021/08/13 07:34:36;;;;;;;8.15;7.35;;;22.10;99.90;;;;;;4986856;28;20029;-52
2021/08/13 07:37:02;;;;;;;7.50;6.72;;;22.10;99.90;;;;;;4982501;28;20141;-55
2021/08/13 07:39:28;;;;;;;6.90;6.20;;;22.10;99.90;;;;;;4988030;28;20023;-53
2021/08/13 07:41:53;;;;;;;10.88;7.00;;;22.10;99.90;;;;;;4988245;28;20037;-52
2021/08/13 07:44:19;;;;;;;9.02;6.68;;;22.20;99.90;;;;;;4985319;28;20385;-53
2021/08/13 07:46:44;;;;;;;7.68;6.82;;;22.40;99.90;;;;;;4985146;28;20033;-53
2021/08/13 07:49:10;;;;;;;10.27;6.90;;;22.60;99.90;;;;;;4985829;28;20388;-53
2021/08/13 07:51:36;;;;;;;7.90;7.10;;;22.80;99.90;;;;;;4983940;28;20436;-53
2021/08/13 07:54:01;;;;;;;8.18;7.38;;;23.00;99.90;;;;;;4988362;28;20026;-54
2021/08/13 07:56:27;;;;;;;8.90;7.68;;;23.20;99.90;;;;;;4984578;28;20019;-53
2021/08/13 07:58:52;;;;;;;7.35;6.65;;;23.30;99.90;;;;;;4987652;28;20030;-52
2021/08/13 08:01:18;;;;;;;7.88;7.18;;;23.40;99.90;;;;;;4985147;28;20401;-53
2021/08/13 08:03:43;;;;;;;10.30;8.15;;;23.60;99.90;;;;;;4986052;28;20456;-53
2021/08/13 08:06:09;;;;;;;8.65;7.03;;;23.70;99.90;;;;;;4986110;28;20029;-54
2021/08/13 08:08:35;;;;;;;7.45;6.85;;;23.90;99.90;;;;;;4983332;28;20030;-55
2021/08/13 08:11:00;;;;;;;8.85;7.97;;;24.00;99.90;;;;;;4988670;28;20030;-51
2021/08/13 08:13:26;;;;;;;7.55;6.78;;;24.10;99.90;;;;;;4984659;28;20098;-56
2021/08/13 08:15:52;;;;;;;8.02;7.10;;;24.30;99.90;;;;;;4973950;28;20406;-56
2021/08/13 08:18:20;;;;;;;10.90;7.78;;;24.50;99.90;;;;;;4972777;28;20050;-55
2021/08/13 08:20:46;;;;;;;10.90;7.57;;;24.60;99.90;;;;;;4981877;28;20031;-55
2021/08/13 08:23:12;;;;;;;16.50;9.07;;;24.80;99.90;;;;;;4987662;28;20114;-54
2021/08/13 08:25:38;;;;;;;8.68;7.45;;;24.80;99.90;;;;;;4987441;28;20516;-53
2021/08/13 08:28:04;;;;;;;8.35;7.30;;;24.90;99.90;;;;;;4988106;28;20492;-52
2021/08/13 08:30:30;;;;;;;8.15;7.35;;;25.00;99.90;;;;;;4988480;28;20141;-55
2021/08/13 08:32:56;;;;;;;9.57;8.10;;;25.00;99.90;;;;;;4988186;28;20530;-52
2021/08/13 08:35:22;;;;;;;8.38;7.47;;;25.20;99.90;;;;;;4987830;28;20018;-51
2021/08/13 08:37:56;;;;;;;7.90;6.97;;;25.30;99.90;;;;;;4988280;28;20038;-53
2021/08/13 08:40:34;;;;;;;9.20;8.02;;;25.50;99.90;;;;;;4981678;28;20072;-53
2021/08/13 08:43:02;;;;;;;9.18;8.15;;;25.50;99.90;;;;;;4986110;28;20023;-51
2021/08/13 08:45:30;;;;;;;10.35;7.88;;;25.60;99.90;;;;;;4983922;28;20014;-50
2021/08/13 08:48:04;;;;;;;10.25;8.77;;;25.70;99.90;;;;;;4986001;28;20080;-53
2021/08/13 08:50:31;;;;;;;12.57;8.18;;;25.70;99.90;;;;;;4985967;28;20393;-52
2021/08/13 08:52:59;;;;;;;12.80;9.23;;;25.80;99.90;;;;;;4985248;28;20026;-56
2021/08/13 08:55:25;;;;;;;11.35;8.80;;;26.00;99.90;;;;;;4985119;28;20031;-53
2021/08/13 08:57:54;;;;;;;8.85;7.90;;;26.10;99.90;;;;;;4987831;28;20109;-52
2021/08/13 09:00:21;;;;;;;11.38;8.15;;;26.20;99.90;;;;;;4979742;28;20026;-54
2021/08/13 09:02:47;;;;;;;9.73;7.68;;;26.30;99.90;;;;;;4991263;28;20026;-56
2021/08/13 09:05:13;;;;;;;11.82;7.03;;;26.30;99.90;;;;;;4991319;28;20034;-55
2021/08/13 09:07:39;;;;;;;8.13;6.75;;;26.40;99.90;;;;;;4990380;28;20031;-54
2021/08/13 09:10:07;;;;;;;7.20;6.32;;;26.60;99.90;;;;;;4990009;28;20074;-56
2021/08/13 09:12:34;;;;;;;13.50;7.75;;;26.60;99.90;;;;;;4991663;28;20018;-55
2021/08/13 09:15:00;;;;;;;7.18;6.43;;;26.70;99.90;;;;;;4991036;28;20485;-55
2021/08/13 09:17:30;;;;;;;8.45;7.03;;;26.70;99.90;;;;;;4991610;28;20433;-51
2021/08/13 09:19:56;;;;;;;10.98;7.07;;;26.80;99.90;;;;;;4991287;28;20687;-53
2021/08/13 09:22:22;;;;;;;7.95;6.22;;;26.80;99.90;;;;;;4991605;28;20443;-54
2021/08/13 09:24:50;;;;;;;8.35;6.78;;;26.90;99.90;;;;;;4987841;28;20069;-52
2021/08/13 09:27:18;;;;;;;9.45;6.90;;;27.10;99.90;;;;;;4976568;28;20089;-53
2021/08/13 09:30:13;;;;;;;7.95;7.15;;;27.10;99.90;;;;;;4986854;28;20504;-52
2021/08/13 09:32:41;;;;;;;10.07;6.97;;;27.10;99.90;;;;;;4977339;28;20077;-55
2021/08/13 09:35:07;;;;;;;7.93;6.65;;;27.10;99.90;;;;;;4991103;28;20027;-53
2021/08/13 09:37:35;;;;;;;10.25;6.57;;;27.00;99.90;;;;;;4991076;28;20018;-56
2021/08/13 09:40:01;;;;;;;7.32;6.55;;;27.00;99.90;;;;;;4984823;28;20042;-53
2021/08/13 09:42:39;;;;;;;8.75;7.10;;;27.00;99.90;;;;;;4980111;28;20026;-53
2021/08/13 09:45:09;;;;;;;6.78;6.18;;;27.00;99.90;;;;;;4979537;28;20031;-52
2021/08/13 09:47:46;;;;;;;7.38;6.68;;;27.00;99.90;;;;;;4996227;28;20035;-53
2021/08/13 09:50:14;;;;;;;7.47;6.88;;;26.90;99.90;;;;;;4990319;28;20031;-56
2021/08/13 09:52:40;;;;;;;7.55;6.85;;;26.90;99.90;;;;;;4990911;28;20026;-54
2021/08/13 09:55:06;;;;;;;8.98;6.63;;;27.00;99.90;;;;;;4990200;28;20050;-55
2021/08/13 09:57:52;;;;;;;8.68;6.53;;;27.00;99.90;;;;;;4989419;28;20026;-55
2021/08/13 10:00:18;;;;;;;6.65;6.07;;;27.20;99.90;;;;;;4989621;28;20049;-53
2021/08/13 10:02:45;;;;;;;6.93;6.22;;;27.30;99.90;;;;;;4989616;28;20034;-53
2021/08/13 10:05:24;;;;;;;7.03;6.22;;;27.30;99.90;;;;;;4978286;28;20030;-56
2021/08/13 10:07:51;;;;;;;7.80;5.90;;;27.30;99.90;;;;;;4974669;28;20088;-57
2021/08/13 10:10:21;;;;;;;7.90;6.43;;;27.20;99.90;;;;;;4981997;23;20422;-55
2021/08/13 10:12:47;;;;;;;7.07;5.57;;;27.30;99.90;;;;;;4950233;28;20482;-54
2021/08/13 10:15:34;;;;;;;6.43;5.82;;;27.40;99.90;;;;;;4944109;28;20508;-58
2021/08/13 10:18:08;;;;;;;7.72;7.03;;;27.40;99.90;;;;;;4944477;28;20032;-55
2021/08/13 10:20:48;;;;;;;6.82;5.93;;;27.30;99.90;;;;;;4931020;28;20390;-56
2021/08/13 10:23:14;;;;;;;6.22;5.63;;;27.30;99.90;;;;;;4943598;29;20019;-56
2021/08/13 10:25:40;;;;;;;6.78;6.18;;;27.20;99.90;;;;;;4938120;29;20024;-57
2021/08/13 10:28:06;;;;;;;10.57;7.25;;;27.20;99.90;;;;;;4946048;29;20577;-56
2021/08/13 10:30:32;;;;;;;9.93;7.30;;;27.20;99.90;;;;;;4936742;28;20096;-55
2021/08/13 10:33:02;;;;;;;8.40;6.15;;;27.30;99.90;;;;;;4925186;29;20532;-57
2021/08/13 10:35:32;;;;;;;8.02;6.25;;;27.30;99.90;;;;;;4941498;28;20023;-55
2021/08/13 10:37:59;;;;;;;8.95;6.47;;;27.20;99.80;;;;;;4928605;29;20490;-55
2021/08/13 10:40:26;;;;;;;6.90;6.20;;;27.20;99.90;;;;;;4944380;28;20102;-55
2021/08/13 10:42:52;;;;;;;7.22;6.38;;;27.30;99.90;;;;;;4940909;28;20027;-54
2021/08/13 10:45:23;;;;;;;6.75;6.07;;;27.20;99.90;;;;;;4939988;29;20023;-53
2021/08/13 10:48:08;;;;;;;6.95;5.75;;;27.30;99.90;;;;;;4943466;28;20023;-56
2021/08/13 10:50:34;;;;;;;7.37;6.07;;;27.40;99.90;;;;;;4951993;28;20030;-55
2021/08/13 10:52:59;;;;;;;7.35;5.78;;;27.40;99.90;;;;;;4942153;28;20031;-56
2021/08/13 10:55:47;;;;;;;7.03;6.40;;;27.40;99.90;;;;;;4942245;29;20019;-56
2021/08/13 10:58:13;;;;;;;6.95;6.25;;;27.40;99.90;;;;;;4941317;28;20032;-55
2021/08/13 11:01:07;;;;;;;7.35;6.65;;;27.30;99.90;;;;;;4945318;29;20026;-56
2021/08/13 11:03:35;;;;;;;6.10;5.43;;;27.20;98.90;;;;;;4938873;29;20022;-54
2021/08/13 11:06:01;;;;;;;7.28;6.50;;;27.10;99.90;;;;;;4947388;29;20102;-56
2021/08/13 11:08:53;;;;;;;8.50;6.28;;;27.10;98.30;;;;;;4938890;29;20032;-56
2021/08/13 11:11:19;;;;;;;7.47;5.47;;;27.20;99.90;;;;;;4934588;29;20036;-55
2021/08/13 11:13:47;;;;;;;6.30;5.70;;;27.20;99.60;;;;;;4942560;29;20103;-57
2021/08/13 11:16:45;;;;;;;9.73;6.38;;;27.20;99.70;;;;;;4943016;29;20111;-55
2021/08/13 11:19:11;;;;;;;7.63;5.78;;;27.10;99.60;;;;;;4919586;29;20584;-55
2021/08/13 11:21:38;;;;;;;7.90;5.93;;;27.00;99.40;;;;;;4943946;29;20027;-53
2021/08/13 11:24:12;;;;;;;7.93;5.70;;;26.90;99.80;;;;;;4941953;28;20099;-56
2021/08/13 11:26:53;;;;;;;9.38;7.05;;;27.00;99.90;;;;;;4942944;29;20019;-56
2021/08/13 11:29:33;;;;;;;10.38;5.88;;;26.90;99.90;;;;;;4948355;28;20106;-56
2021/08/13 11:32:00;;;;;;;10.48;6.18;;;26.90;99.90;;;;;;4940674;29;20024;-53
2021/08/13 11:34:45;;;;;;;6.05;5.55;;;26.80;99.90;;;;;;4931790;29;20574;-57
2021/08/13 11:37:29;;;;;;;7.03;6.32;;;26.90;99.90;;;;;;4939119;29;20039;-57
2021/08/13 11:40:00;;;;;;;6.97;6.15;;;27.00;99.90;;;;;;4946993;28;20027;-56
2021/08/13 11:42:33;;;;;;;6.50;5.90;;;27.00;99.70;;;;;;4937195;29;20094;-54
2021/08/13 11:44:59;;;;;;;6.40;5.80;;;27.00;99.90;;;;;;4941347;28;20024;-51
2021/08/13 11:47:25;;;;;;;7.18;6.47;;;27.00;99.90;;;;;;4942936;29;20027;-55
2021/08/13 11:49:51;;;;;;;6.93;5.72;;;27.00;99.90;;;;;;4937762;28;20046;-53
2021/08/13 11:52:20;;;;;;;11.27;6.80;;;27.00;99.90;;;;;;4936501;29;20081;-54
2021/08/13 11:54:46;;;;;;;8.95;6.57;;;27.10;99.70;;;;;;4936715;28;20524;-56
2021/08/13 11:57:12;;;;;;;6.70;6.00;;;27.10;99.90;;;;;;4931700;29;20110;-56
2021/08/13 11:59:38;;;;;;;8.05;6.55;;;27.10;99.90;;;;;;4938625;29;20020;-57
2021/08/13 12:02:04;;;;;;;7.35;6.63;;;27.20;99.90;;;;;;4931542;28;20107;-54
2021/08/13 12:04:30;;;;;;;9.77;6.35;;;27.20;99.40;;;;;;4929323;29;20114;-56
2021/08/13 12:07:10;;;;;;;7.13;6.43;;;27.20;99.90;;;;;;4937740;28;20038;-55
2021/08/13 12:09:43;;;;;;;7.80;6.90;;;27.20;99.80;;;;;;4932341;29;20402;-57
2021/08/13 12:12:12;;;;;;;7.10;6.38;;;27.30;99.90;;;;;;4935756;28;20124;-54
2021/08/13 12:14:38;;;;;;;7.75;6.88;;;27.40;99.90;;;;;;4934753;29;20023;-57
2021/08/13 12:17:05;;;;;;;10.43;7.40;;;27.50;99.90;;;;;;4938306;28;20102;-56
2021/08/13 12:19:31;;;;;;;6.85;6.25;;;27.70;99.60;;;;;;4926196;28;20023;-52
2021/08/13 12:21:59;;;;;;;10.00;6.68;;;27.70;99.90;;;;;;4935576;29;20019;-56
2021/08/13 12:24:32;;;;;;;10.10;6.13;;;27.70;99.30;;;;;;4931809;28;20115;-57
2021/08/13 12:27:01;;;;;;;7.70;6.50;;;27.60;99.90;;;;;;4938052;29;20565;-56
2021/08/13 12:29:29;;;;;;;7.85;5.78;;;27.50;99.50;;;;;;4934987;28;20407;-55
2021/08/13 12:31:56;;;;;;;6.22;5.68;;;27.40;98.90;;;;;;4938603;29;20032;-53
2021/08/13 12:34:23;;;;;;;12.63;6.05;;;27.30;99.90;;;;;;4937045;28;20050;-56
2021/08/13 12:37:08;;;;;;;9.00;6.25;;;27.30;99.50;;;;;;4933140;29;20024;-58
2021/08/13 12:39:40;;;;;;;9.30;6.43;;;27.20;99.10;;;;;;4930602;29;20034;-56